Time;durP1;ratioP1;P1;durP2;ratioP2;P2;SDS_P1;SDS_P2;PMS_P1;PMS_P2;Temp;Humidity;BMP_temperature;BMP_pressure;BME280_temperature;BME280_humidity;BME280_pressure;Samples;Min_cycle;Max_cycle;Signal;HPM_P1;HPM_P2
2022/12/05 00:07:28;;;;;;;32.63;10.80;;;2.60;99.90;;;;;;20957882;28;20089;-77
2022/12/05 00:17:31;;;;;;;28.42;9.85;;;2.60;99.90;;;;;;20991143;28;20040;-77
2022/12/05 00:27:32;;;;;;;28.83;10.82;;;2.60;99.90;;;;;;20990779;28;20043;-77
2022/12/05 00:37:33;;;;;;;33.13;12.23;;;2.50;99.90;;;;;;20988335;28;20032;-77
2022/12/05 00:47:35;;;;;;;33.05;11.73;;;2.50;99.90;;;;;;20988836;28;20025;-77
2022/12/05 00:57:36;;;;;;;29.67;11.52;;;2.50;99.90;;;;;;20997447;28;20063;-77
2022/12/05 01:07:36;;;;;;;28.08;10.93;;;2.60;99.90;;;;;;21002113;28;20539;-77
2022/12/05 01:17:37;;;;;;;30.23;11.23;;;2.70;99.90;;;;;;21004364;28;20025;-77
2022/12/05 01:27:38;;;;;;;29.52;10.90;;;2.70;99.90;;;;;;21004194;28;20053;-77
2022/12/05 01:37:39;;;;;;;34.50;11.88;;;2.50;99.90;;;;;;21002543;28;20163;-77
2022/12/05 01:47:40;;;;;;;40.90;11.93;;;2.60;99.90;;;;;;21002045;28;20037;-77
2022/12/05 01:57:41;;;;;;;34.85;12.40;;;2.50;99.90;;;;;;21002586;28;20487;-77
2022/12/05 02:07:43;;;;;;;34.65;12.30;;;2.40;99.90;;;;;;20998575;28;20122;-77
2022/12/05 02:18:38;;;;;;;29.15;10.80;;;2.50;99.90;;;;;;20998247;28;20040;-77
2022/12/05 02:28:51;;;;;;;27.90;10.25;;;2.50;99.90;;;;;;20883133;28;20076;-77
2022/12/05 02:39:15;;;;;;;35.60;11.50;;;2.60;99.90;;;;;;20995850;28;20363;-76
2022/12/05 02:49:22;;;;;;;32.10;12.25;;;2.50;99.90;;;;;;20996318;28;20514;-77
2022/12/05 02:59:23;;;;;;;36.42;12.70;;;2.50;99.90;;;;;;20996847;28;20052;-78
2022/12/05 03:09:31;;;;;;;27.27;10.63;;;2.50;99.90;;;;;;20964385;22;20041;-77
2022/12/05 03:19:48;;;;;;;22.67;9.63;;;2.60;99.90;;;;;;20921962;28;20040;-77
2022/12/05 03:30:04;;;;;;;25.20;9.68;;;2.70;99.90;;;;;;20918186;28;20029;-78
2022/12/05 03:40:08;;;;;;;35.22;11.82;;;2.60;99.90;;;;;;20915279;28;20036;-77
2022/12/05 03:50:34;;;;;;;28.83;11.55;;;2.40;99.90;;;;;;20916767;28;20024;-77
2022/12/05 04:00:39;;;;;;;24.38;9.98;;;2.50;99.90;;;;;;20894077;28;20064;-77
2022/12/05 04:10:49;;;;;;;32.80;10.15;;;2.60;99.90;;;;;;20909621;28;20083;-77
2022/12/05 04:31:24;;;;;;;31.83;10.93;;;2.70;99.90;;;;;;20999734;28;20043;-76
2022/12/05 04:41:31;;;;;;;35.00;13.98;;;2.70;99.90;;;;;;21012355;28;20055;-78
2022/12/05 04:51:34;;;;;;;38.17;12.82;;;2.70;99.90;;;;;;21006687;28;20033;-78
2022/12/05 05:01:42;;;;;;;30.80;11.68;;;2.70;99.90;;;;;;21020570;28;20039;-78
2022/12/05 05:11:43;;;;;;;41.08;13.48;;;2.80;99.90;;;;;;21022248;28;20032;-78
2022/12/05 05:21:44;;;;;;;35.10;11.52;;;2.70;99.90;;;;;;20998048;28;20044;-78
2022/12/05 05:31:45;;;;;;;39.47;13.43;;;2.80;99.90;;;;;;20972565;28;20039;-78
2022/12/05 05:41:45;;;;;;;40.13;13.02;;;2.70;99.90;;;;;;21011221;28;20056;-78
2022/12/05 05:51:46;;;;;;;44.13;15.88;;;2.70;99.90;;;;;;21012222;28;20021;-78
2022/12/05 06:01:47;;;;;;;50.33;16.55;;;2.80;99.90;;;;;;21016054;28;20037;-78
2022/12/05 06:11:48;;;;;;;59.70;18.65;;;2.80;99.90;;;;;;21008804;28;20029;-77
2022/12/05 06:21:49;;;;;;;47.00;15.30;;;2.90;99.90;;;;;;20996575;28;20032;-78
2022/12/05 06:31:50;;;;;;;42.47;13.82;;;2.80;99.90;;;;;;21019092;28;20110;-78
2022/12/05 06:41:51;;;;;;;43.85;14.50;;;2.80;99.90;;;;;;21021038;28;20025;-79
2022/12/05 06:51:52;;;;;;;44.95;16.15;;;3.00;99.90;;;;;;21019644;28;20410;-79
2022/12/05 07:01:53;;;;;;;51.67;17.13;;;3.00;99.90;;;;;;21020078;28;20067;-78
2022/12/05 07:11:54;;;;;;;47.03;13.98;;;3.00;99.90;;;;;;21017600;28;20036;-78
2022/12/05 07:21:55;;;;;;;49.88;15.65;;;2.90;99.90;;;;;;21017868;28;20406;-78
2022/12/05 07:31:55;;;;;;;50.35;17.48;;;2.80;99.90;;;;;;20997316;28;20031;-79
2022/12/05 07:41:56;;;;;;;48.58;17.98;;;2.80;99.90;;;;;;20996406;28;20028;-79
2022/12/05 07:51:57;;;;;;;53.47;16.70;;;3.00;99.90;;;;;;21015032;28;20101;-78
2022/12/05 08:01:58;;;;;;;43.83;15.07;;;3.10;99.90;;;;;;21026552;28;20032;-78
2022/12/05 08:11:58;;;;;;;40.92;14.27;;;3.20;99.90;;;;;;20995531;28;20070;-79
2022/12/05 08:21:59;;;;;;;34.28;12.60;;;3.10;99.90;;;;;;21012731;28;20048;-79
2022/12/05 08:32:00;;;;;;;43.75;14.32;;;3.30;99.90;;;;;;20979186;28;20028;-79
2022/12/05 08:42:01;;;;;;;40.03;14.13;;;3.20;99.90;;;;;;20995757;28;20037;-78
2022/12/05 08:52:02;;;;;;;43.90;15.70;;;3.10;99.90;;;;;;21013458;28;20036;-79
2022/12/05 09:02:03;;;;;;;41.53;16.48;;;3.20;99.90;;;;;;21032133;22;20040;-80
2022/12/05 09:12:04;;;;;;;51.42;17.33;;;3.40;99.90;;;;;;21078207;28;20028;-80
2022/12/05 09:22:05;;;;;;;37.88;14.00;;;3.50;99.90;;;;;;21152592;28;20036;-81
2022/12/05 09:32:06;;;;;;;48.33;17.52;;;3.70;99.90;;;;;;21156207;28;20088;-80
2022/12/05 09:42:31;;;;;;;34.47;14.20;;;3.80;99.90;;;;;;21129540;28;20020;-80
2022/12/05 09:52:37;;;;;;;36.67;14.38;;;4.00;99.90;;;;;;21128875;28;20034;-80
2022/12/05 10:03:04;;;;;;;51.53;20.88;;;4.40;99.90;;;;;;21116460;28;20038;-80
2022/12/05 10:13:10;;;;;;;32.08;14.90;;;4.60;99.90;;;;;;21080082;28;20039;-80
2022/12/05 10:23:29;;;;;;;39.47;14.93;;;4.70;99.90;;;;;;21124844;28;20039;-80
2022/12/05 10:33:36;;;;;;;37.33;14.02;;;4.60;99.90;;;;;;21105747;28;20039;-81
2022/12/05 10:43:41;;;;;;;45.00;16.00;;;4.80;99.90;;;;;;21097246;28;20119;-81
2022/12/05 10:53:48;;;;;;;39.65;16.30;;;5.00;99.90;;;;;;21138489;28;20492;-79
2022/12/05 11:03:56;;;;;;;38.88;15.38;;;5.30;99.90;;;;;;21168247;28;20024;-80
2022/12/05 11:14:22;;;;;;;41.92;14.85;;;5.40;99.90;;;;;;21150596;28;20089;-80
2022/12/05 11:24:32;;;;;;;33.85;13.90;;;5.30;99.90;;;;;;21111616;28;20071;-80
2022/12/05 11:34:46;;;;;;;34.20;14.07;;;5.40;99.90;;;;;;21108002;28;20035;-80
2022/12/05 11:45:04;;;;;;;32.40;13.23;;;5.40;99.90;;;;;;21120054;28;20032;-81
2022/12/05 11:55:23;;;;;;;32.13;13.35;;;5.70;99.90;;;;;;21120331;28;20039;-81
2022/12/05 12:06:05;;;;;;;38.75;16.08;;;5.90;99.90;;;;;;21101568;28;20039;-81
2022/12/05 12:16:32;;;;;;;28.20;11.63;;;6.90;99.90;;;;;;21065711;28;20054;-81
2022/12/05 12:26:48;;;;;;;19.38;9.43;;;8.00;99.90;;;;;;21085173;28;20448;-81
2022/12/05 12:37:12;;;;;;;15.07;8.57;;;9.40;99.90;;;;;;21083376;28;20036;-81
2022/12/05 12:47:40;;;;;;;14.18;7.90;;;9.40;99.90;;;;;;21087113;28;20126;-81
2022/12/05 12:57:46;;;;;;;20.00;8.25;;;9.50;99.90;;;;;;21115828;28;20027;-81
2022/12/05 13:08:00;;;;;;;20.75;9.82;;;8.50;99.90;;;;;;21150109;28;20040;-81
2022/12/05 13:18:04;;;;;;;21.05;10.40;;;8.00;99.90;;;;;;21118074;27;20493;-81
2022/12/05 13:28:15;;;;;;;14.40;7.30;;;7.50;99.90;;;;;;21158759;28;20046;-80
2022/12/05 13:49:02;;;;;;;11.45;5.78;;;8.10;99.90;;;;;;21155016;28;20036;-81
2022/12/05 13:59:03;;;;;;;11.35;5.63;;;9.10;99.90;;;;;;21171574;27;20031;-81
2022/12/05 14:09:29;;;;;;;7.93;4.70;;;9.00;99.90;;;;;;21119409;28;20039;-80
2022/12/05 14:19:55;;;;;;;10.35;5.53;;;8.60;99.90;;;;;;21124282;27;20043;-80
2022/12/05 14:30:15;;;;;;;13.73;6.85;;;8.10;99.90;;;;;;21136483;28;20028;-79
2022/12/05 14:40:33;;;;;;;11.93;6.57;;;7.40;99.90;;;;;;21070774;28;20032;-80
2022/12/05 14:50:40;;;;;;;15.35;6.85;;;7.00;99.90;;;;;;21109056;27;20040;-80
2022/12/05 15:00:42;;;;;;;14.00;6.13;;;6.80;99.90;;;;;;21119069;28;20451;-80
2022/12/05 15:10:44;;;;;;;10.13;5.40;;;6.60;99.90;;;;;;21062175;23;20032;-77
2022/12/05 15:20:56;;;;;;;10.43;5.30;;;6.50;99.90;;;;;;21100628;28;20038;-79
2022/12/05 15:30:57;;;;;;;5.22;3.60;;;5.70;99.90;;;;;;21114176;28;20533;-78
2022/12/05 15:40:58;;;;;;;9.85;5.13;;;5.20;99.90;;;;;;21110543;28;20063;-77
2022/12/05 15:51:00;;;;;;;7.80;4.03;;;5.00;99.90;;;;;;21109626;28;20524;-79
2022/12/05 16:01:21;;;;;;;8.43;4.35;;;4.80;99.90;;;;;;21088938;28;20290;-78
2022/12/05 16:11:22;;;;;;;14.20;6.07;;;4.30;99.90;;;;;;21110853;28;20028;-80
2022/12/05 16:21:37;;;;;;;;;;;4.10;99.90;;;;;;21085184;28;20040;-79
2022/12/05 16:31:38;;;;;;;45.55;21.92;;;3.70;99.90;;;;;;21046389;28;20005;-79
2022/12/05 16:41:40;;;;;;;19.48;9.32;;;3.60;99.90;;;;;;21099176;28;20402;-78
2022/12/05 16:51:44;;;;;;;11.52;5.25;;;3.20;99.90;;;;;;21093722;28;20401;-78
2022/12/05 17:01:45;;;;;;;11.40;7.32;;;2.70;99.90;;;;;;21130785;28;20036;-78
2022/12/05 17:11:49;;;;;;;12.27;6.30;;;2.80;99.90;;;;;;21114046;28;20460;-80
2022/12/05 17:21:50;;;;;;;12.30;6.13;;;2.80;99.90;;;;;;21089604;28;20031;-78
2022/12/05 17:31:51;;;;;;;8.88;5.13;;;3.00;99.90;;;;;;21096909;28;20024;-80
2022/12/05 17:41:52;;;;;;;10.50;5.50;;;3.30;99.90;;;;;;21099309;28;20036;-78
2022/12/05 17:51:53;;;;;;;27.00;9.05;;;3.40;99.90;;;;;;21113348;28;20032;-78
2022/12/05 18:01:54;;;;;;;29.55;14.05;;;3.40;99.90;;;;;;21099366;28;20490;-78
2022/12/05 18:11:55;;;;;;;29.67;13.88;;;3.20;99.90;;;;;;21111651;28;20032;-78
2022/12/05 18:21:56;;;;;;;12.23;6.10;;;3.10;99.90;;;;;;21094974;28;20382;-79
2022/12/05 18:31:57;;;;;;;9.70;5.30;;;2.70;99.90;;;;;;21094926;28;20126;-78
2022/12/05 18:41:58;;;;;;;11.68;6.15;;;2.20;99.90;;;;;;21088503;28;20024;-78
2022/12/05 18:51:58;;;;;;;11.00;6.68;;;1.90;99.90;;;;;;21100823;28;20058;-80
2022/12/05 19:01:59;;;;;;;14.45;7.38;;;2.00;99.90;;;;;;21088073;28;20488;-80
2022/12/05 19:12:00;;;;;;;13.52;6.53;;;1.90;99.90;;;;;;21102938;28;20402;-80
2022/12/05 19:22:01;;;;;;;11.18;6.45;;;1.90;99.90;;;;;;21074948;28;20032;-79
2022/12/05 19:32:02;;;;;;;16.38;6.70;;;1.60;99.90;;;;;;21094393;28;20108;-80
2022/12/05 19:42:03;;;;;;;15.82;7.20;;;1.70;99.90;;;;;;21102687;28;20115;-79
2022/12/05 19:52:03;;;;;;;19.88;7.40;;;1.70;99.90;;;;;;21093733;28;20034;-79
2022/12/05 20:02:04;;;;;;;13.50;6.47;;;1.60;99.90;;;;;;21103620;28;20032;-80
2022/12/05 20:12:05;;;;;;;9.80;5.47;;;1.60;99.90;;;;;;21000906;28;20047;-79
2022/12/05 20:22:06;;;;;;;13.23;7.05;;;1.50;99.90;;;;;;20990122;28;20020;-80
2022/12/05 20:32:07;;;;;;;7.88;5.00;;;1.60;99.90;;;;;;20984601;28;20039;-79
2022/12/05 20:42:08;;;;;;;11.70;5.90;;;1.50;99.90;;;;;;21027294;28;20052;-79
2022/12/05 20:52:09;;;;;;;14.30;6.60;;;1.50;99.90;;;;;;21004265;28;20032;-79
2022/12/05 21:02:10;;;;;;;17.27;8.13;;;1.70;99.90;;;;;;20996271;28;20110;-79
2022/12/05 21:12:10;;;;;;;15.50;7.45;;;1.80;99.90;;;;;;20996162;28;20466;-79
2022/12/05 21:22:11;;;;;;;14.38;7.88;;;1.80;99.90;;;;;;21027881;28;20028;-79
2022/12/05 21:32:12;;;;;;;14.88;8.13;;;1.90;99.90;;;;;;21027671;28;20028;-79
2022/12/05 21:42:13;;;;;;;18.42;8.77;;;1.90;99.90;;;;;;21006383;28;20036;-80
2022/12/05 21:52:13;;;;;;;13.70;7.38;;;1.90;99.90;;;;;;21023020;28;20029;-79
2022/12/05 22:02:14;;;;;;;15.38;8.52;;;1.90;99.90;;;;;;21097965;28;20084;-79
2022/12/05 22:12:15;;;;;;;19.10;9.00;;;1.90;99.90;;;;;;21023472;28;20029;-79
2022/12/05 22:22:16;;;;;;;16.95;8.23;;;1.90;99.90;;;;;;21006698;28;20031;-79
2022/12/05 22:32:17;;;;;;;15.30;7.78;;;2.00;99.90;;;;;;21047830;28;20028;-78
2022/12/05 22:42:17;;;;;;;17.55;8.55;;;2.10;99.90;;;;;;21024851;28;20036;-80
2022/12/05 22:52:18;;;;;;;10.43;6.28;;;2.10;99.90;;;;;;21043415;28;20078;-79
2022/12/05 23:02:19;;;;;;;9.57;5.38;;;1.80;99.90;;;;;;21046375;28;20028;-78
2022/12/05 23:12:20;;;;;;;9.77;5.80;;;1.40;99.90;;;;;;21113657;28;20024;-78
2022/12/05 23:22:20;;;;;;;13.05;5.60;;;1.00;99.90;;;;;;21112820;28;20081;-79
2022/12/05 23:32:21;;;;;;;17.20;6.63;;;0.70;99.90;;;;;;21124764;28;20046;-78
2022/12/05 23:42:22;;;;;;;20.38;8.73;;;0.50;99.90;;;;;;21123502;28;20031;-77
2022/12/05 23:52:23;;;;;;;14.18;7.05;;;0.30;99.90;;;;;;21118299;28;20028;-78
